Time;durP1;ratioP1;P1;durP2;ratioP2;P2;SDS_P1;SDS_P2;PMS_P1;PMS_P2;Temp;Humidity;BMP_temperature;BMP_pressure;BME280_temperature;BME280_humidity;BME280_pressure;Samples;Min_cycle;Max_cycle;Signal;HPM_P1;HPM_P2
2023/12/23 00:02:16;;;;;;;9.03;2.20;;;;;;;;;;4997144;28;20202;-86
2023/12/23 00:04:48;;;;;;;1.90;1.10;;;;;;;;;;4996812;28;20210;-86
2023/12/23 00:07:19;;;;;;;1.93;1.57;;;;;;;;;;5012655;28;20276;-86
2023/12/23 00:09:50;;;;;;;2.67;1.53;;;;;;;;;;4997187;28;20212;-86
2023/12/23 00:12:19;;;;;;;8.83;1.80;;;;;;;;;;5013316;28;20201;-87
2023/12/23 00:14:48;;;;;;;0.83;0.67;;;;;;;;;;4996754;28;20197;-86
2023/12/23 00:17:25;;;;;;;11.60;1.53;;;;;;;;;;4996560;28;20205;-86
2023/12/23 00:20:02;;;;;;;0.70;0.70;;;;;;;;;;4996891;28;20203;-86
2023/12/23 00:22:33;;;;;;;0.90;0.90;;;;;;;;;;4996567;28;20228;-87
2023/12/23 00:25:03;;;;;;;7.17;1.70;;;;;;;;;;4996090;28;20206;-86
2023/12/23 00:27:33;;;;;;;4.23;1.93;;;;;;;;;;5012662;28;20230;-86
2023/12/23 00:30:02;;;;;;;6.37;1.40;;;;;;;;;;4996699;28;20210;-87
2023/12/23 00:32:31;;;;;;;0.70;0.70;;;;;;;;;;5012119;28;20210;-87
2023/12/23 00:35:03;;;;;;;2.57;1.03;;;;;;;;;;4996019;28;20297;-87
2023/12/23 00:37:33;;;;;;;7.73;2.63;;;;;;;;;;4996273;28;20205;-87
2023/12/23 00:40:04;;;;;;;3.50;1.20;;;;;;;;;;4996276;28;20232;-87
2023/12/23 00:42:37;;;;;;;1.37;1.00;;;;;;;;;;4996433;28;20212;-87
2023/12/23 00:45:08;;;;;;;0.93;0.93;;;;;;;;;;4996128;28;20357;-86
2023/12/23 00:47:37;;;;;;;1.80;0.80;;;;;;;;;;5011748;28;20205;-87
2023/12/23 00:50:15;;;;;;;7.63;2.80;;;;;;;;;;5012633;28;20222;-87
2023/12/23 00:52:44;;;;;;;6.30;3.10;;;;;;;;;;5012321;28;20205;-87
2023/12/23 00:55:15;;;;;;;9.67;2.27;;;;;;;;;;5012511;28;20202;-87
2023/12/23 00:57:44;;;;;;;5.50;1.73;;;;;;;;;;5012018;28;20198;-87
2023/12/23 01:00:14;;;;;;;11.63;3.33;;;;;;;;;;5012886;28;20205;-87
2023/12/23 01:02:43;;;;;;;3.20;1.77;;;;;;;;;;4996130;28;20205;-87
2023/12/23 01:05:19;;;;;;;15.73;3.23;;;;;;;;;;5012066;28;20225;-87
2023/12/23 01:07:52;;;;;;;1.43;1.43;;;;;;;;;;5012407;28;20211;-87
2023/12/23 01:10:26;;;;;;;1.40;1.30;;;;;;;;;;4996089;28;20220;-87
2023/12/23 01:12:55;;;;;;;3.03;1.00;;;;;;;;;;5012840;28;20210;-87
2023/12/23 01:15:27;;;;;;;1.40;1.27;;;;;;;;;;5011694;28;20267;-86
2023/12/23 01:18:01;;;;;;;5.00;2.43;;;;;;;;;;4994684;28;20295;-86
2023/12/23 01:20:42;;;;;;;1.37;0.90;;;;;;;;;;4994793;28;20251;-87
2023/12/23 01:23:12;;;;;;;9.33;2.80;;;;;;;;;;5010929;28;20205;-87
2023/12/23 01:25:44;;;;;;;3.77;1.40;;;;;;;;;;4994334;28;20218;-87
2023/12/23 01:28:13;;;;;;;3.10;1.50;;;;;;;;;;4993050;28;20206;-87
2023/12/23 01:30:42;;;;;;;9.93;1.97;;;;;;;;;;5008400;28;20206;-87
2023/12/23 01:33:14;;;;;;;5.23;1.63;;;;;;;;;;4991616;28;20202;-87
2023/12/23 01:35:45;;;;;;;2.57;1.63;;;;;;;;;;5007656;28;20201;-87
2023/12/23 01:38:16;;;;;;;3.50;2.43;;;;;;;;;;4991089;28;20214;-87
2023/12/23 01:40:48;;;;;;;3.93;1.93;;;;;;;;;;5007773;28;20249;-87
2023/12/23 01:43:32;;;;;;;1.77;1.57;;;;;;;;;;4991555;28;20192;-87
2023/12/23 01:46:04;;;;;;;8.80;2.50;;;;;;;;;;5007516;28;20225;-88
2023/12/23 01:48:36;;;;;;;10.23;2.63;;;;;;;;;;5007556;28;20231;-88
2023/12/23 01:51:09;;;;;;;7.63;2.47;;;;;;;;;;4991264;28;20205;-88
2023/12/23 01:53:38;;;;;;;12.27;3.77;;;;;;;;;;4991097;28;20260;-88
2023/12/23 01:56:06;;;;;;;3.20;1.80;;;;;;;;;;5007873;28;20211;-87
2023/12/23 01:58:36;;;;;;;4.10;1.53;;;;;;;;;;5007368;28;20216;-87
2023/12/23 02:01:04;;;;;;;10.63;3.10;;;;;;;;;;4996086;28;20221;-86
2023/12/23 02:03:34;;;;;;;9.57;3.27;;;;;;;;;;4995506;28;20195;-85
2023/12/23 02:06:03;;;;;;;13.13;2.73;;;;;;;;;;5011934;28;20254;-84
2023/12/23 02:08:33;;;;;;;6.87;2.17;;;;;;;;;;5011026;28;20226;-84
2023/12/23 02:11:05;;;;;;;4.30;1.63;;;;;;;;;;4995228;28;20209;-84
2023/12/23 02:13:37;;;;;;;8.10;3.17;;;;;;;;;;4996270;28;20251;-84
2023/12/23 02:16:07;;;;;;;3.17;1.73;;;;;;;;;;4995035;28;20205;-84
2023/12/23 02:18:40;;;;;;;6.97;2.27;;;;;;;;;;4995891;28;20230;-84
2023/12/23 02:21:10;;;;;;;7.63;3.43;;;;;;;;;;4995830;28;20197;-84
2023/12/23 02:23:39;;;;;;;19.13;8.20;;;;;;;;;;5011402;28;20202;-84
2023/12/23 02:26:10;;;;;;;21.37;8.70;;;;;;;;;;4995113;28;20219;-84
2023/12/23 02:28:40;;;;;;;12.33;3.57;;;;;;;;;;5010972;28;20303;-83
2023/12/23 02:31:11;;;;;;;7.83;3.77;;;;;;;;;;4994518;28;20232;-84
2023/12/23 02:33:40;;;;;;;15.53;4.03;;;;;;;;;;4995593;28;20223;-84
2023/12/23 02:36:08;;;;;;;6.10;3.17;;;;;;;;;;4995968;28;20194;-84
2023/12/23 02:38:38;;;;;;;8.60;4.40;;;;;;;;;;4995770;28;20209;-84
2023/12/23 02:41:08;;;;;;;13.07;3.60;;;;;;;;;;5010570;28;20237;-84
2023/12/23 02:43:39;;;;;;;18.27;3.70;;;;;;;;;;4994969;28;20202;-84
2023/12/23 02:46:08;;;;;;;4.03;2.50;;;;;;;;;;4995711;28;20261;-84
2023/12/23 02:48:36;;;;;;;9.27;3.60;;;;;;;;;;5010387;28;20299;-84
2023/12/23 02:51:05;;;;;;;11.27;4.33;;;;;;;;;;4993764;28;20208;-84
2023/12/23 02:53:33;;;;;;;18.47;6.23;;;;;;;;;;4994558;28;20201;-84
2023/12/23 02:56:04;;;;;;;12.03;5.10;;;;;;;;;;4994388;28;20252;-84
2023/12/23 02:58:32;;;;;;;13.80;3.93;;;;;;;;;;4994342;28;20199;-84
2023/12/23 03:01:01;;;;;;;11.67;3.83;;;;;;;;;;4993622;28;20206;-86
2023/12/23 03:03:31;;;;;;;16.07;3.90;;;;;;;;;;4994174;28;20202;-86
2023/12/23 03:05:59;;;;;;;19.13;6.27;;;;;;;;;;5010371;28;20295;-86
2023/12/23 03:08:28;;;;;;;19.60;6.20;;;;;;;;;;4994944;28;20221;-86
2023/12/23 03:10:57;;;;;;;12.40;4.47;;;;;;;;;;4993719;28;20207;-87
2023/12/23 03:13:27;;;;;;;11.80;3.53;;;;;;;;;;4993939;28;20191;-87
2023/12/23 03:15:55;;;;;;;12.77;4.57;;;;;;;;;;5010074;28;20260;-87
2023/12/23 03:18:24;;;;;;;12.87;4.27;;;;;;;;;;4993617;28;20205;-87
2023/12/23 03:20:52;;;;;;;12.87;5.40;;;;;;;;;;4993395;28;20207;-87
2023/12/23 03:23:21;;;;;;;19.37;3.50;;;;;;;;;;4993781;28;20202;-88
2023/12/23 03:25:50;;;;;;;12.77;3.63;;;;;;;;;;4993717;28;20209;-87
2023/12/23 03:28:21;;;;;;;9.23;3.03;;;;;;;;;;4993679;28;20305;-87
2023/12/23 03:30:53;;;;;;;14.40;5.10;;;;;;;;;;4993321;28;20203;-88
2023/12/23 03:33:21;;;;;;;14.07;4.40;;;;;;;;;;4993725;28;20203;-87
2023/12/23 03:35:50;;;;;;;13.30;3.63;;;;;;;;;;5010102;28;20208;-88
2023/12/23 03:38:20;;;;;;;11.33;4.20;;;;;;;;;;4994839;28;20231;-87
2023/12/23 03:40:54;;;;;;;5.77;2.67;;;;;;;;;;5009234;28;20226;-87
2023/12/23 03:43:39;;;;;;;19.63;5.80;;;;;;;;;;5009311;28;20210;-87
2023/12/23 03:46:29;;;;;;;12.77;4.57;;;;;;;;;;5009833;28;20230;-88
2023/12/23 03:49:04;;;;;;;16.00;4.77;;;;;;;;;;4993396;28;20226;-88
2023/12/23 03:51:41;;;;;;;15.47;6.27;;;;;;;;;;5009180;28;20212;-87
2023/12/23 03:54:14;;;;;;;11.33;5.33;;;;;;;;;;4992850;28;20230;-88
2023/12/23 03:56:43;;;;;;;10.70;4.13;;;;;;;;;;5009972;28;20202;-88
2023/12/23 03:59:21;;;;;;;19.33;7.63;;;;;;;;;;5009380;28;20207;-87
2023/12/23 04:01:54;;;;;;;19.10;7.37;;;;;;;;;;5008852;28;20207;-87
2023/12/23 04:04:39;;;;;;;10.07;4.07;;;;;;;;;;4992864;28;20206;-87
2023/12/23 04:07:15;;;;;;;10.50;3.67;;;;;;;;;;5008838;28;20246;-87
2023/12/23 04:09:47;;;;;;;14.13;4.73;;;;;;;;;;5009352;28;20206;-88
2023/12/23 04:12:18;;;;;;;9.83;4.67;;;;;;;;;;5009000;28;20228;-87
2023/12/23 04:14:47;;;;;;;19.73;4.97;;;;;;;;;;4992472;28;20229;-88
2023/12/23 04:17:16;;;;;;;13.97;3.53;;;;;;;;;;4993122;28;20203;-88
2023/12/23 04:19:50;;;;;;;14.03;6.10;;;;;;;;;;4992873;28;20315;-88
2023/12/23 04:22:20;;;;;;;17.70;4.83;;;;;;;;;;5008506;28;20202;-87
2023/12/23 04:24:49;;;;;;;11.53;3.43;;;;;;;;;;4992283;28;20254;-88
2023/12/23 04:27:19;;;;;;;11.47;3.43;;;;;;;;;;5008922;28;20241;-87
2023/12/23 04:29:50;;;;;;;17.00;7.17;;;;;;;;;;4992324;28;20261;-88
2023/12/23 04:32:19;;;;;;;15.43;4.77;;;;;;;;;;5008299;28;20212;-88
2023/12/23 04:34:50;;;;;;;16.77;6.27;;;;;;;;;;4992073;28;20212;-88
2023/12/23 04:37:19;;;;;;;13.20;4.40;;;;;;;;;;5008928;28;20211;-88
2023/12/23 04:39:47;;;;;;;16.80;5.17;;;;;;;;;;5008826;28;20210;-88
2023/12/23 04:42:18;;;;;;;25.57;8.00;;;;;;;;;;4992019;28;20217;-88
2023/12/23 04:44:52;;;;;;;10.93;4.67;;;;;;;;;;4991905;28;20198;-87
2023/12/23 04:47:20;;;;;;;21.50;6.17;;;;;;;;;;5008825;28;20249;-88
2023/12/23 04:49:51;;;;;;;17.30;5.50;;;;;;;;;;5008709;28;20218;-88
2023/12/23 04:52:21;;;;;;;21.17;6.53;;;;;;;;;;4992199;28;20202;-88
2023/12/23 04:54:52;;;;;;;12.40;5.00;;;;;;;;;;5008167;28;20226;-87
2023/12/23 04:57:21;;;;;;;16.27;5.43;;;;;;;;;;5008636;28;20256;-87
2023/12/23 04:59:57;;;;;;;14.03;4.37;;;;;;;;;;4992215;28;20198;-87
2023/12/23 05:02:34;;;;;;;23.00;9.07;;;;;;;;;;4991930;28;20233;-87
2023/12/23 05:05:13;;;;;;;17.43;4.80;;;;;;;;;;4991802;28;20232;-87
2023/12/23 05:07:49;;;;;;;23.70;7.43;;;;;;;;;;5007892;28;20265;-87
2023/12/23 05:10:30;;;;;;;13.40;4.57;;;;;;;;;;4992107;28;20238;-87
2023/12/23 05:13:15;;;;;;;11.97;4.63;;;;;;;;;;5007995;28;20203;-87
2023/12/23 05:15:46;;;;;;;18.03;6.17;;;;;;;;;;4991158;28;20200;-87
2023/12/23 05:18:15;;;;;;;10.83;3.67;;;;;;;;;;5008461;28;20203;-87
2023/12/23 05:20:46;;;;;;;22.03;7.37;;;;;;;;;;4991941;28;20254;-87
2023/12/23 05:23:17;;;;;;;10.50;4.33;;;;;;;;;;5008033;28;20202;-87
2023/12/23 05:25:50;;;;;;;17.50;7.03;;;;;;;;;;4991407;28;20296;-87
2023/12/23 05:28:21;;;;;;;17.73;4.10;;;;;;;;;;5008331;28;20313;-87
2023/12/23 05:30:51;;;;;;;14.47;5.23;;;;;;;;;;4992322;28;20292;-87
2023/12/23 05:33:24;;;;;;;13.43;4.70;;;;;;;;;;5008406;28;20202;-87
2023/12/23 05:35:59;;;;;;;14.87;4.30;;;;;;;;;;4991929;28;20291;-87
2023/12/23 05:38:28;;;;;;;24.90;7.90;;;;;;;;;;5009326;28;20195;-87
2023/12/23 05:41:02;;;;;;;16.07;5.60;;;;;;;;;;4993904;28;20214;-87
2023/12/23 05:43:35;;;;;;;17.53;6.33;;;;;;;;;;5009562;28;20204;-87
2023/12/23 05:46:08;;;;;;;18.93;4.53;;;;;;;;;;5008739;28;20210;-87
2023/12/23 05:48:50;;;;;;;18.70;5.13;;;;;;;;;;5009917;28;20228;-87
2023/12/23 05:51:38;;;;;;;17.33;5.03;;;;;;;;;;5010091;28;20200;-87
2023/12/23 05:54:12;;;;;;;19.30;6.20;;;;;;;;;;4987900;28;20208;-87
2023/12/23 05:56:43;;;;;;;14.13;4.97;;;;;;;;;;5009094;28;20208;-87
2023/12/23 05:59:13;;;;;;;8.27;4.50;;;;;;;;;;4993955;28;20203;-87
2023/12/23 06:01:45;;;;;;;15.07;4.83;;;;;;;;;;5009806;28;20208;-87
2023/12/23 06:04:18;;;;;;;18.67;6.17;;;;;;;;;;5009083;28;20203;-87
2023/12/23 06:06:49;;;;;;;15.80;3.80;;;;;;;;;;5008931;28;20257;-87
2023/12/23 06:09:21;;;;;;;27.57;9.33;;;;;;;;;;5010036;28;20259;-87
2023/12/23 06:11:50;;;;;;;17.77;5.00;;;;;;;;;;4993345;28;20250;-87
2023/12/23 06:14:23;;;;;;;19.33;7.27;;;;;;;;;;5009219;28;20314;-87
2023/12/23 06:16:53;;;;;;;23.80;8.90;;;;;;;;;;5010441;28;20278;-87
2023/12/23 06:19:22;;;;;;;9.87;4.73;;;;;;;;;;4994047;28;20199;-87
2023/12/23 06:21:51;;;;;;;15.00;4.50;;;;;;;;;;5010039;28;20227;-87
2023/12/23 06:24:22;;;;;;;11.50;4.73;;;;;;;;;;4993152;28;20204;-87
2023/12/23 06:26:54;;;;;;;16.07;5.20;;;;;;;;;;5009580;28;20211;-87
2023/12/23 06:29:22;;;;;;;26.13;8.53;;;;;;;;;;5010181;28;20223;-87
2023/12/23 06:31:52;;;;;;;17.03;5.13;;;;;;;;;;4993826;28;20204;-87
2023/12/23 06:34:22;;;;;;;17.17;6.40;;;;;;;;;;5010108;28;20291;-87
2023/12/23 06:36:57;;;;;;;17.53;5.37;;;;;;;;;;4993439;28;20211;-87
2023/12/23 06:39:30;;;;;;;14.50;5.63;;;;;;;;;;4993504;28;20208;-87
2023/12/23 06:42:09;;;;;;;;;;;;;;;;;;;;;
2023/12/23 06:44:42;;;;;;;15.50;4.17;;;;;;;;;;4993608;28;20344;-87
2023/12/23 06:47:15;;;;;;;22.83;6.93;;;;;;;;;;4996082;28;20231;-87
2023/12/23 06:49:46;;;;;;;21.40;5.27;;;;;;;;;;4998474;28;20222;-87
2023/12/23 06:52:15;;;;;;;15.43;5.30;;;;;;;;;;4997749;28;20210;-87
2023/12/23 06:54:47;;;;;;;13.80;5.57;;;;;;;;;;5013834;28;20202;-87
2023/12/23 06:57:16;;;;;;;20.27;6.63;;;;;;;;;;4996598;28;20196;-87
2023/12/23 06:59:52;;;;;;;9.43;3.17;;;;;;;;;;5013525;28;20200;-87
2023/12/23 07:02:22;;;;;;;23.27;5.27;;;;;;;;;;4997796;28;20203;-87
2023/12/23 07:04:54;;;;;;;8.40;3.30;;;;;;;;;;4997356;28;20211;-87
2023/12/23 07:07:23;;;;;;;18.93;6.90;;;;;;;;;;4997006;28;20240;-87
2023/12/23 07:09:53;;;;;;;11.90;3.43;;;;;;;;;;5013845;28;20224;-87
2023/12/23 07:12:34;;;;;;;12.70;4.73;;;;;;;;;;4997121;28;20286;-86
2023/12/23 07:15:08;;;;;;;18.03;4.47;;;;;;;;;;4996795;28;20205;-87
2023/12/23 07:17:38;;;;;;;16.63;5.50;;;;;;;;;;4996933;28;20207;-86
2023/12/23 07:20:13;;;;;;;19.90;8.23;;;;;;;;;;4996423;28;20210;-87
2023/12/23 07:22:47;;;;;;;20.63;8.47;;;;;;;;;;4997098;28;20305;-87
2023/12/23 07:25:21;;;;;;;27.80;8.07;;;;;;;;;;5013126;28;20207;-87
2023/12/23 07:27:55;;;;;;;17.30;4.67;;;;;;;;;;4996672;28;20217;-86
2023/12/23 07:30:24;;;;;;;4.93;2.77;;;;;;;;;;5014072;28;20281;-86
2023/12/23 07:33:00;;;;;;;10.70;3.30;;;;;;;;;;4997083;28;20207;-86
2023/12/23 07:35:32;;;;;;;14.10;6.27;;;;;;;;;;4997301;28;20207;-86
2023/12/23 07:38:05;;;;;;;30.20;6.07;;;;;;;;;;4996459;28;20200;-86
2023/12/23 07:41:00;;;;;;;14.93;4.57;;;;;;;;;;4997368;28;20223;-87
2023/12/23 07:43:32;;;;;;;11.50;2.90;;;;;;;;;;4997119;28;20202;-86
2023/12/23 07:46:18;;;;;;;27.77;10.13;;;;;;;;;;4997780;28;20203;-87
2023/12/23 07:48:47;;;;;;;11.87;4.43;;;;;;;;;;5014782;28;20204;-87
2023/12/23 07:51:26;;;;;;;15.87;5.87;;;;;;;;;;5014579;28;20199;-87
2023/12/23 07:53:55;;;;;;;16.37;5.20;;;;;;;;;;5014308;28;20203;-87
2023/12/23 07:56:27;;;;;;;16.57;5.83;;;;;;;;;;5013989;28;20210;-86
2023/12/23 07:58:57;;;;;;;25.20;8.10;;;;;;;;;;5014059;28;20208;-87
2023/12/23 08:01:26;;;;;;;12.13;4.37;;;;;;;;;;5014607;28;20203;-87
2023/12/23 08:03:55;;;;;;;14.13;4.60;;;;;;;;;;5014671;28;20263;-87
2023/12/23 08:06:25;;;;;;;23.07;8.00;;;;;;;;;;5013296;28;20323;-87
2023/12/23 08:08:54;;;;;;;23.37;7.73;;;;;;;;;;5013553;28;20199;-87
2023/12/23 08:11:23;;;;;;;20.40;7.40;;;;;;;;;;5014217;28;20248;-87
2023/12/23 08:13:53;;;;;;;15.67;3.90;;;;;;;;;;5014360;28;20213;-87
2023/12/23 08:16:22;;;;;;;21.23;5.53;;;;;;;;;;5013768;28;20204;-86
2023/12/23 08:18:54;;;;;;;16.47;4.03;;;;;;;;;;5013796;28;20297;-87
2023/12/23 08:21:22;;;;;;;12.30;5.47;;;;;;;;;;5015717;28;20194;-87
2023/12/23 08:24:04;;;;;;;;;;;;;;;;;;;;;
2023/12/23 08:27:11;;;;;;;20.97;7.83;;;;;;;;;;4983527;28;20219;-87
2023/12/23 08:29:51;;;;;;;18.07;5.43;;;;;;;;;;5013523;28;20228;-87
2023/12/23 08:32:20;;;;;;;14.80;5.30;;;;;;;;;;5013797;28;20225;-87
2023/12/23 08:34:49;;;;;;;10.07;3.40;;;;;;;;;;5013135;28;20203;-87
2023/12/23 08:37:18;;;;;;;17.73;4.17;;;;;;;;;;5012822;28;20269;-87
2023/12/23 08:39:47;;;;;;;18.50;7.07;;;;;;;;;;5013199;28;20295;-87
2023/12/23 08:42:15;;;;;;;9.80;5.20;;;;;;;;;;5013701;28;20229;-87
2023/12/23 08:44:46;;;;;;;21.73;7.43;;;;;;;;;;5013515;28;20216;-87
2023/12/23 08:47:17;;;;;;;16.67;5.90;;;;;;;;;;5013337;28;20621;-87
2023/12/23 08:49:45;;;;;;;12.30;4.70;;;;;;;;;;5013303;28;20212;-87
2023/12/23 08:52:15;;;;;;;20.10;6.80;;;;;;;;;;5013231;28;20204;-87
2023/12/23 08:54:43;;;;;;;8.27;3.97;;;;;;;;;;5014011;28;20199;-87
2023/12/23 08:57:15;;;;;;;8.67;4.20;;;;;;;;;;5013619;28;20231;-87
2023/12/23 08:59:44;;;;;;;17.10;6.40;;;;;;;;;;5012999;28;20206;-87
2023/12/23 09:02:13;;;;;;;16.13;6.67;;;;;;;;;;5013566;28;20200;-87
2023/12/23 09:04:43;;;;;;;21.27;5.97;;;;;;;;;;5013670;28;20212;-87
2023/12/23 09:07:12;;;;;;;10.60;3.33;;;;;;;;;;5013154;28;20239;-87
2023/12/23 09:09:41;;;;;;;9.83;5.73;;;;;;;;;;5012910;28;20207;-87
2023/12/23 09:12:13;;;;;;;13.57;4.07;;;;;;;;;;5013909;28;20207;-88
2023/12/23 09:14:44;;;;;;;18.33;4.40;;;;;;;;;;5013467;28;20211;-88
2023/12/23 09:17:13;;;;;;;9.77;4.53;;;;;;;;;;5013311;28;20199;-88
2023/12/23 09:19:42;;;;;;;13.10;5.13;;;;;;;;;;5012822;28;20207;-88
2023/12/23 09:22:14;;;;;;;16.07;5.27;;;;;;;;;;5014787;28;20295;-88
2023/12/23 09:24:45;;;;;;;15.17;5.27;;;;;;;;;;5014026;28;20298;-88
2023/12/23 09:27:17;;;;;;;12.30;3.37;;;;;;;;;;5013442;28;20286;-88
2023/12/23 09:29:47;;;;;;;7.00;3.40;;;;;;;;;;5013525;28;20238;-86
2023/12/23 09:32:19;;;;;;;10.87;4.27;;;;;;;;;;5013861;28;20227;-88
2023/12/23 09:34:49;;;;;;;10.43;3.03;;;;;;;;;;5013208;28;20192;-87
2023/12/23 09:37:21;;;;;;;9.10;3.83;;;;;;;;;;5014049;28;20294;-87
2023/12/23 09:39:50;;;;;;;12.47;5.20;;;;;;;;;;5012660;28;20212;-87
2023/12/23 09:42:19;;;;;;;15.77;6.07;;;;;;;;;;5012615;28;20235;-87
2023/12/23 09:44:51;;;;;;;9.97;3.13;;;;;;;;;;5013164;28;20260;-87
2023/12/23 09:47:22;;;;;;;8.63;2.60;;;;;;;;;;5012103;28;20212;-87
2023/12/23 09:49:52;;;;;;;4.90;2.47;;;;;;;;;;5012029;28;20287;-88
2023/12/23 09:52:24;;;;;;;12.20;4.40;;;;;;;;;;5013060;28;20207;-87
2023/12/23 09:54:55;;;;;;;16.03;5.43;;;;;;;;;;5013183;28;20203;-87
2023/12/23 09:57:24;;;;;;;12.97;4.60;;;;;;;;;;5012974;28;20281;-87
2023/12/23 09:59:54;;;;;;;7.13;2.47;;;;;;;;;;5012853;28;20294;-88
2023/12/23 10:02:24;;;;;;;8.90;4.33;;;;;;;;;;5013257;28;20291;-88
2023/12/23 10:04:53;;;;;;;9.10;3.57;;;;;;;;;;5012753;28;20214;-87
2023/12/23 10:07:26;;;;;;;12.27;3.50;;;;;;;;;;5013197;28;20259;-86
2023/12/23 10:09:57;;;;;;;14.20;5.10;;;;;;;;;;5012900;28;20215;-88
2023/12/23 10:12:27;;;;;;;13.33;4.27;;;;;;;;;;5012926;28;20285;-88
2023/12/23 10:14:56;;;;;;;20.77;6.40;;;;;;;;;;5012957;28;20411;-87
2023/12/23 10:17:24;;;;;;;5.87;2.33;;;;;;;;;;5012997;28;20298;-88
2023/12/23 10:19:55;;;;;;;19.57;7.67;;;;;;;;;;5013419;28;20264;-87
2023/12/23 10:22:28;;;;;;;12.53;5.50;;;;;;;;;;5016885;28;20203;-87
2023/12/23 10:25:00;;;;;;;17.87;3.73;;;;;;;;;;5016646;28;20210;-88
2023/12/23 10:27:32;;;;;;;10.93;4.03;;;;;;;;;;5017864;28;20201;-88
2023/12/23 10:30:03;;;;;;;17.77;5.30;;;;;;;;;;5016062;28;20199;-88
2023/12/23 10:32:37;;;;;;;10.03;3.03;;;;;;;;;;5016232;28;20233;-87
2023/12/23 10:35:08;;;;;;;9.83;2.73;;;;;;;;;;4997850;28;20259;-87
2023/12/23 10:37:44;;;;;;;13.90;4.23;;;;;;;;;;5013516;28;20201;-88
2023/12/23 10:40:19;;;;;;;10.30;5.07;;;;;;;;;;5015674;28;20207;-88
2023/12/23 10:42:49;;;;;;;9.07;3.47;;;;;;;;;;5019316;28;20203;-87
2023/12/23 10:45:20;;;;;;;9.63;2.50;;;;;;;;;;4997847;28;20299;-87
2023/12/23 10:47:52;;;;;;;20.77;6.33;;;;;;;;;;5012393;28;20211;-88
2023/12/23 10:50:22;;;;;;;10.13;4.17;;;;;;;;;;5018915;28;20206;-88
2023/12/23 10:52:59;;;;;;;11.30;4.83;;;;;;;;;;5018883;28;20315;-87
2023/12/23 10:55:31;;;;;;;14.27;3.90;;;;;;;;;;5018568;28;20207;-87
2023/12/23 10:58:03;;;;;;;10.87;4.23;;;;;;;;;;5018638;28;20196;-87
2023/12/23 11:00:32;;;;;;;15.83;6.13;;;;;;;;;;5017861;28;20275;-88
2023/12/23 11:03:02;;;;;;;10.53;3.03;;;;;;;;;;5017224;28;20230;-87
2023/12/23 11:05:34;;;;;;;16.90;4.70;;;;;;;;;;5017442;28;20222;-87
2023/12/23 11:08:07;;;;;;;16.40;6.57;;;;;;;;;;4998221;28;20228;-87
2023/12/23 11:10:38;;;;;;;15.00;6.17;;;;;;;;;;4997437;28;20212;-87
2023/12/23 11:13:08;;;;;;;13.63;5.10;;;;;;;;;;4997358;28;20255;-88
2023/12/23 11:15:42;;;;;;;8.57;2.90;;;;;;;;;;4998592;28;20210;-87
2023/12/23 11:18:11;;;;;;;6.90;2.13;;;;;;;;;;5002267;28;20204;-87
2023/12/23 11:20:49;;;;;;;15.83;6.00;;;;;;;;;;5000968;28;20224;-87
2023/12/23 11:23:33;;;;;;;19.63;3.87;;;;;;;;;;5001355;28;20508;-87
2023/12/23 11:26:04;;;;;;;13.33;4.43;;;;;;;;;;5000913;28;20208;-87
2023/12/23 11:28:38;;;;;;;8.10;2.67;;;;;;;;;;5001630;28;20209;-87
2023/12/23 11:31:10;;;;;;;11.23;3.40;;;;;;;;;;5000865;28;20331;-87
2023/12/23 11:33:40;;;;;;;17.00;5.53;;;;;;;;;;5000616;28;20307;-87
2023/12/23 11:36:11;;;;;;;14.53;4.37;;;;;;;;;;5000579;28;20204;-88
2023/12/23 11:38:50;;;;;;;11.23;4.77;;;;;;;;;;5001866;28;20272;-87
2023/12/23 11:41:23;;;;;;;5.57;2.30;;;;;;;;;;5000901;28;20207;-87
2023/12/23 11:43:54;;;;;;;12.60;3.43;;;;;;;;;;5001064;28;20231;-87
2023/12/23 11:46:27;;;;;;;11.67;3.03;;;;;;;;;;5001307;28;20212;-88
2023/12/23 11:48:59;;;;;;;15.47;6.17;;;;;;;;;;5001458;28;20200;-88
2023/12/23 11:51:30;;;;;;;11.10;4.00;;;;;;;;;;5000512;28;20231;-88
2023/12/23 11:54:02;;;;;;;11.97;4.63;;;;;;;;;;5000983;28;20196;-88
2023/12/23 11:56:31;;;;;;;7.13;2.60;;;;;;;;;;5000966;28;20227;-88
2023/12/23 11:59:17;;;;;;;6.50;2.23;;;;;;;;;;5000899;28;20295;-88
2023/12/23 12:01:51;;;;;;;8.70;3.63;;;;;;;;;;5000672;28;20284;-88
2023/12/23 12:04:21;;;;;;;7.20;3.33;;;;;;;;;;5000593;28;20222;-88
2023/12/23 12:06:50;;;;;;;7.73;3.53;;;;;;;;;;5001126;28;20247;-88
2023/12/23 12:09:24;;;;;;;14.43;4.87;;;;;;;;;;5001445;28;20199;-88
2023/12/23 12:11:58;;;;;;;17.40;5.17;;;;;;;;;;5001414;28;20212;-88
2023/12/23 12:14:29;;;;;;;10.80;4.73;;;;;;;;;;5001085;28;20207;-88
2023/12/23 12:17:00;;;;;;;11.37;3.87;;;;;;;;;;5001660;28;20205;-88
2023/12/23 12:19:31;;;;;;;8.80;3.00;;;;;;;;;;5001761;28;20341;-88
2023/12/23 12:22:05;;;;;;;15.63;4.23;;;;;;;;;;5001315;28;20197;-88
2023/12/23 12:24:37;;;;;;;17.80;5.23;;;;;;;;;;5001884;28;20199;-88
2023/12/23 12:27:08;;;;;;;15.53;4.27;;;;;;;;;;5002128;28;20192;-88
2023/12/23 12:29:40;;;;;;;8.27;3.30;;;;;;;;;;5000666;28;20207;-88
2023/12/23 12:32:13;;;;;;;11.83;4.03;;;;;;;;;;5001174;28;20228;-88
2023/12/23 12:34:42;;;;;;;6.97;2.47;;;;;;;;;;5000492;28;20295;-88
2023/12/23 12:37:17;;;;;;;6.87;2.33;;;;;;;;;;5001800;28;20266;-88
2023/12/23 12:39:48;;;;;;;11.30;3.30;;;;;;;;;;5001469;28;20203;-88
2023/12/23 12:42:20;;;;;;;11.63;4.13;;;;;;;;;;5000549;28;20234;-88
2023/12/23 12:45:03;;;;;;;10.67;3.93;;;;;;;;;;4998803;28;20209;-88
2023/12/23 12:47:38;;;;;;;11.57;5.40;;;;;;;;;;4994289;28;20219;-89
2023/12/23 12:50:17;;;;;;;8.27;3.17;;;;;;;;;;4993735;28;20203;-89
2023/12/23 12:52:49;;;;;;;13.10;3.57;;;;;;;;;;4992338;28;20200;-88
2023/12/23 12:55:25;;;;;;;13.03;5.10;;;;;;;;;;4991249;28;20236;-88
2023/12/23 12:57:56;;;;;;;4.53;1.63;;;;;;;;;;4992737;28;20205;-89
2023/12/23 13:00:27;;;;;;;14.40;3.20;;;;;;;;;;4998846;28;20200;-88
2023/12/23 13:03:06;;;;;;;12.53;2.20;;;;;;;;;;4999043;28;20225;-88
2023/12/23 13:05:39;;;;;;;8.47;2.53;;;;;;;;;;4997986;28;20227;-88
2023/12/23 13:08:10;;;;;;;12.73;4.53;;;;;;;;;;5016282;28;20330;-88
2023/12/23 13:10:42;;;;;;;15.20;4.67;;;;;;;;;;5012678;28;20199;-88
2023/12/23 13:13:15;;;;;;;9.90;3.47;;;;;;;;;;5016279;28;20219;-88
2023/12/23 13:15:45;;;;;;;12.13;3.97;;;;;;;;;;5016479;28;20204;-88
2023/12/23 13:18:23;;;;;;;5.77;2.07;;;;;;;;;;5015619;28;20204;-88
2023/12/23 13:20:55;;;;;;;8.73;2.73;;;;;;;;;;5017521;28;20224;-89
2023/12/23 13:23:26;;;;;;;10.97;3.53;;;;;;;;;;5009970;28;20294;-89
2023/12/23 13:25:56;;;;;;;10.70;3.17;;;;;;;;;;5009904;28;20202;-89
2023/12/23 13:28:27;;;;;;;9.30;3.20;;;;;;;;;;5011620;28;20203;-89
2023/12/23 13:30:58;;;;;;;7.57;3.50;;;;;;;;;;5007149;28;20200;-89
2023/12/23 13:33:29;;;;;;;13.27;4.60;;;;;;;;;;5009993;28;20219;-89
2023/12/23 13:36:04;;;;;;;13.60;5.17;;;;;;;;;;5009880;28;20205;-91
2023/12/23 13:38:47;;;;;;;10.73;2.70;;;;;;;;;;5010166;28;20200;-91
2023/12/23 13:41:53;;;;;;;12.50;2.80;;;;;;;;;;5010124;28;20199;-91
2023/12/23 13:44:38;;;;;;;12.87;4.50;;;;;;;;;;5002886;28;20196;-91
2023/12/23 13:47:16;;;;;;;10.53;3.40;;;;;;;;;;5010134;28;20214;-91
2023/12/23 13:49:47;;;;;;;13.83;3.33;;;;;;;;;;5008687;28;20237;-91
2023/12/23 13:52:20;;;;;;;7.87;2.60;;;;;;;;;;5010015;28;20223;-90
2023/12/23 13:54:56;;;;;;;7.60;2.57;;;;;;;;;;4990661;28;20200;-90
2023/12/23 13:57:36;;;;;;;16.43;3.60;;;;;;;;;;5009534;28;20211;-91
2023/12/23 14:00:32;;;;;;;11.03;3.17;;;;;;;;;;5001677;28;20203;-91
2023/12/23 14:03:06;;;;;;;8.10;3.80;;;;;;;;;;5009475;28;20250;-90
2023/12/23 14:05:42;;;;;;;13.73;4.67;;;;;;;;;;5009197;28;20220;-90
2023/12/23 14:08:23;;;;;;;5.80;1.90;;;;;;;;;;5007549;28;20238;-91
2023/12/23 14:11:30;;;;;;;13.03;4.40;;;;;;;;;;5005912;28;20286;-91
2023/12/23 14:15:03;;;;;;;11.77;4.00;;;;;;;;;;4967034;28;20232;-90
2023/12/23 14:18:08;;;;;;;6.03;2.83;;;;;;;;;;4993186;28;20242;-90
2023/12/23 14:24:28;;;;;;;12.73;5.70;;;;;;;;;;5009136;28;20279;-90
2023/12/23 14:31:13;;;;;;;12.37;2.50;;;;;;;;;;4967106;28;20234;-88
2023/12/23 14:33:45;;;;;;;4.53;1.73;;;;;;;;;;4951894;28;20213;-88
2023/12/23 14:36:14;;;;;;;11.97;2.70;;;;;;;;;;4966024;28;20234;-88
2023/12/23 14:38:46;;;;;;;6.93;3.00;;;;;;;;;;5008606;28;20286;-88
2023/12/23 14:41:18;;;;;;;3.37;1.23;;;;;;;;;;5009163;28;20196;-88
2023/12/23 14:47:08;;;;;;;12.90;3.03;;;;;;;;;;4994091;28;20267;-90
2023/12/23 14:49:37;;;;;;;7.80;3.00;;;;;;;;;;5014882;28;20197;-89
2023/12/23 14:52:12;;;;;;;11.73;2.20;;;;;;;;;;5007642;28;20240;-90
2023/12/23 14:54:41;;;;;;;16.47;4.40;;;;;;;;;;5008915;28;20242;-89
2023/12/23 14:57:10;;;;;;;12.37;4.30;;;;;;;;;;5008535;28;20206;-89
2023/12/23 14:59:40;;;;;;;8.17;3.07;;;;;;;;;;5009341;28;20194;-88
2023/12/23 15:02:11;;;;;;;12.83;4.43;;;;;;;;;;5009557;28;20337;-88
2023/12/23 15:04:39;;;;;;;10.17;3.70;;;;;;;;;;5005617;28;20195;-89
2023/12/23 15:07:08;;;;;;;6.73;1.67;;;;;;;;;;5018305;28;20231;-88
2023/12/23 15:09:36;;;;;;;11.03;2.67;;;;;;;;;;5050238;28;20244;-89
2023/12/23 15:12:17;;;;;;;5.27;2.13;;;;;;;;;;5013479;28;20204;-89
2023/12/23 15:14:50;;;;;;;5.77;1.83;;;;;;;;;;5011811;28;20210;-89
2023/12/23 15:17:20;;;;;;;7.20;3.30;;;;;;;;;;5011930;28;20207;-89
2023/12/23 15:19:49;;;;;;;19.73;3.03;;;;;;;;;;5013356;28;20286;-89